Time;durP1;ratioP1;P1;durP2;ratioP2;P2;SDS_P1;SDS_P2;PMS_P1;PMS_P2;Temp;Humidity;BMP_temperature;BMP_pressure;BME280_temperature;BME280_humidity;BME280_pressure;Samples;Min_cycle;Max_cycle;Signal;HPM_P1;HPM_P2
2023/12/04 00:01:44;;;;;;;;;;;0.70;99.90;;;;;;5031586;28;19928;-65
2023/12/04 00:04:13;;;;;;;;;;;0.60;99.90;;;;;;5027776;28;19921;-65
2023/12/04 00:06:41;;;;;;;;;;;0.70;99.90;;;;;;5033448;28;19921;-65
2023/12/04 00:09:10;;;;;;;;;;;0.60;99.90;;;;;;5033704;28;19921;-66
2023/12/04 00:11:38;;;;;;;;;;;0.80;99.90;;;;;;5032827;28;19925;-65
2023/12/04 00:14:06;;;;;;;;;;;0.80;99.90;;;;;;5034122;28;19921;-66
2023/12/04 00:16:34;;;;;;;;;;;0.70;99.90;;;;;;5033271;28;19921;-66
2023/12/04 00:19:02;;;;;;;;;;;0.70;99.90;;;;;;5033648;28;20355;-66
2023/12/04 00:21:30;;;;;;;;;;;0.70;99.90;;;;;;5033595;28;19937;-65
2023/12/04 00:23:58;;;;;;;;;;;0.70;99.90;;;;;;5033460;28;19964;-64
2023/12/04 00:26:27;;;;;;;;;;;0.70;99.90;;;;;;5033085;28;19921;-64
2023/12/04 00:28:55;;;;;;;;;;;0.70;99.90;;;;;;5033354;28;19933;-65
2023/12/04 00:31:22;;;;;;;;;;;0.50;99.90;;;;;;5033044;28;19925;-66
2023/12/04 00:33:50;;;;;;;;;;;0.50;99.90;;;;;;5032823;28;20410;-66
2023/12/04 00:36:19;;;;;;;;;;;0.50;99.90;;;;;;5033155;28;21064;-65
2023/12/04 00:38:47;;;;;;;;;;;0.60;99.90;;;;;;5033163;28;20009;-66
2023/12/04 00:41:16;;;;;;;;;;;0.70;99.90;;;;;;5032951;28;20339;-67
2023/12/04 00:43:45;;;;;;;;;;;0.80;99.90;;;;;;5032505;28;19921;-66
2023/12/04 00:46:13;;;;;;;;;;;0.80;99.90;;;;;;5032769;28;19949;-67
2023/12/04 00:48:41;;;;;;;;;;;0.90;99.90;;;;;;5032847;28;19928;-66
2023/12/04 00:51:08;;;;;;;;;;;0.90;99.90;;;;;;5032974;28;19964;-65
2023/12/04 00:53:36;;;;;;;;;;;1.10;99.90;;;;;;5032652;28;19921;-66
2023/12/04 00:56:04;;;;;;;;;;;1.00;99.90;;;;;;5024849;28;19970;-66
2023/12/04 00:58:32;;;;;;;;;;;1.00;99.90;;;;;;5032566;28;19928;-66
2023/12/04 01:01:01;;;;;;;;;;;0.80;99.90;;;;;;5029178;28;19925;-66
2023/12/04 01:03:32;;;;;;;;;;;0.80;99.90;;;;;;5027886;28;19921;-66
2023/12/04 01:06:00;;;;;;;;;;;0.90;99.90;;;;;;5032293;28;19964;-66
2023/12/04 01:08:28;;;;;;;;;;;1.00;99.90;;;;;;5032803;28;19920;-66
2023/12/04 01:10:56;;;;;;;;;;;1.10;99.90;;;;;;5032457;28;19929;-65
2023/12/04 01:13:24;;;;;;;;;;;1.10;99.90;;;;;;5032291;28;19925;-65
2023/12/04 01:15:52;;;;;;;;;;;1.30;99.90;;;;;;5031901;28;20346;-65
2023/12/04 01:18:21;;;;;;;;;;;1.30;99.90;;;;;;5032561;28;19921;-65
2023/12/04 01:20:49;;;;;;;;;;;1.10;99.90;;;;;;5031867;28;19932;-66
2023/12/04 01:23:16;;;;;;;;;;;1.20;99.90;;;;;;5033630;28;19921;-65
2023/12/04 01:25:44;;;;;;;;;;;1.00;99.90;;;;;;5031896;28;19921;-65
2023/12/04 01:28:13;;;;;;;;;;;1.00;99.90;;;;;;5032197;28;19937;-65
2023/12/04 01:30:41;;;;;;;;;;;1.10;99.90;;;;;;5031959;28;19991;-65
2023/12/04 01:33:08;;;;;;;;;;;0.80;99.90;;;;;;5031790;28;19964;-65
2023/12/04 01:35:38;;;;;;;;;;;1.00;99.90;;;;;;5032115;28;19928;-65
2023/12/04 01:38:04;;;;;;;;;;;1.00;99.90;;;;;;5024051;28;19925;-65
2023/12/04 01:40:32;;;;;;;;;;;1.20;99.90;;;;;;5031951;28;19925;-65
2023/12/04 01:43:00;;;;;;;;;;;1.00;99.90;;;;;;5031453;28;20299;-65
2023/12/04 01:45:28;;;;;;;;;;;1.10;99.90;;;;;;5031850;28;19932;-64
2023/12/04 01:47:56;;;;;;;;;;;1.00;99.90;;;;;;5032083;28;20237;-65
2023/12/04 01:50:24;;;;;;;;;;;1.10;99.90;;;;;;5030167;28;20277;-64
2023/12/04 01:52:54;;;;;;;;;;;1.20;99.90;;;;;;5031284;28;19937;-64
2023/12/04 01:55:22;;;;;;;;;;;1.30;99.90;;;;;;5031660;28;19924;-65
2023/12/04 01:57:50;;;;;;;;;;;1.40;99.90;;;;;;5031585;28;20380;-65
2023/12/04 02:00:20;;;;;;;;;;;1.50;99.90;;;;;;5031877;28;19936;-65
2023/12/04 02:02:48;;;;;;;;;;;1.50;99.90;;;;;;5022696;28;19967;-64
2023/12/04 02:05:17;;;;;;;;;;;1.30;99.90;;;;;;5031471;28;19975;-65
2023/12/04 02:07:45;;;;;;;;;;;1.20;99.90;;;;;;5030789;28;19921;-64
2023/12/04 02:10:14;;;;;;;;;;;1.10;99.90;;;;;;5031598;28;19921;-64
2023/12/04 02:12:42;;;;;;;;;;;1.00;99.90;;;;;;5031283;28;20315;-65
2023/12/04 02:15:10;;;;;;;;;;;0.80;99.90;;;;;;5031336;28;19961;-65
2023/12/04 02:17:38;;;;;;;;;;;0.70;99.90;;;;;;5031458;28;20312;-65
2023/12/04 02:20:07;;;;;;;;;;;0.70;99.90;;;;;;5034459;28;19921;-65
2023/12/04 02:22:35;;;;;;;;;;;0.70;99.90;;;;;;5033221;28;20380;-65
2023/12/04 02:25:04;;;;;;;;;;;1.00;99.90;;;;;;5030916;28;19924;-65
2023/12/04 02:27:36;;;;;;;;;;;1.00;99.90;;;;;;5023023;28;20380;-65
2023/12/04 02:30:06;;;;;;;;;;;1.10;99.90;;;;;;5031244;28;20356;-65
2023/12/04 02:32:36;;;;;;;;;;;1.00;99.90;;;;;;5030660;28;20394;-65
2023/12/04 02:35:05;;;;;;;;;;;0.80;99.90;;;;;;5030851;28;20336;-65
2023/12/04 02:37:33;;;;;;;;;;;0.60;99.90;;;;;;5031395;28;19970;-66
2023/12/04 02:40:02;;;;;;;;;;;0.60;99.90;;;;;;5029145;28;19943;-66
2023/12/04 02:42:31;;;;;;;;;;;0.70;99.90;;;;;;5031000;28;19932;-65
2023/12/04 02:44:59;;;;;;;;;;;0.70;99.90;;;;;;5030733;28;19943;-66
2023/12/04 02:47:27;;;;;;;;;;;0.40;99.90;;;;;;5031014;28;19928;-66
2023/12/04 02:49:55;;;;;;;;;;;0.40;99.90;;;;;;5029127;28;19952;-65
2023/12/04 02:52:23;;;;;;;;;;;0.30;99.90;;;;;;5030941;28;19967;-64
2023/12/04 02:54:50;;;;;;;;;;;0.40;99.90;;;;;;5030595;28;20343;-65
2023/12/04 02:57:18;;;;;;;;;;;0.20;99.90;;;;;;5031077;28;19921;-65
2023/12/04 02:59:47;;;;;;;;;;;0.10;99.90;;;;;;5030541;28;20004;-67
2023/12/04 03:02:15;;;;;;;;;;;0.00;99.90;;;;;;5030659;28;19925;-65
2023/12/04 03:04:43;;;;;;;;;;;0.10;99.90;;;;;;5030665;28;19925;-65
2023/12/04 03:07:10;;;;;;;;;;;-0.10;99.90;;;;;;5030583;28;19921;-66
2023/12/04 03:09:38;;;;;;;;;;;-0.10;99.90;;;;;;5031030;28;19921;-65
2023/12/04 03:12:16;;;;;;;;;;;-0.30;99.90;;;;;;5031807;28;20418;-65
2023/12/04 03:14:44;;;;;;;;;;;-0.30;99.90;;;;;;5033942;28;19928;-65
2023/12/04 03:17:13;;;;;;;;;;;-0.30;99.90;;;;;;5032103;28;19921;-65
2023/12/04 03:19:41;;;;;;;;;;;-0.60;99.90;;;;;;5030613;28;20303;-65
2023/12/04 03:22:08;;;;;;;;;;;-0.60;99.90;;;;;;5033528;28;19947;-65
2023/12/04 03:24:36;;;;;;;;;;;-0.80;99.90;;;;;;5030467;28;19959;-65
2023/12/04 03:27:04;;;;;;;;;;;-1.10;99.90;;;;;;5023026;28;19925;-65
2023/12/04 03:29:32;;;;;;;;;;;-1.10;99.90;;;;;;5032208;28;20368;-65
2023/12/04 03:32:00;;;;;;;;;;;-1.00;99.90;;;;;;5031102;28;19925;-66
2023/12/04 03:34:29;;;;;;;;;;;-1.00;99.90;;;;;;5032084;28;19921;-65
2023/12/04 03:36:56;;;;;;;;;;;-0.90;99.90;;;;;;5022227;28;19921;-65
2023/12/04 03:39:24;;;;;;;;;;;-0.90;99.90;;;;;;5030311;28;19927;-65
2023/12/04 03:41:52;;;;;;;;;;;-1.00;99.90;;;;;;5030158;28;19928;-69
2023/12/04 03:44:20;;;;;;;;;;;-1.10;99.90;;;;;;5030511;28;19921;-66
2023/12/04 03:46:47;;;;;;;;;;;-0.90;99.90;;;;;;5031743;28;19925;-64
2023/12/04 03:49:15;;;;;;;;;;;-0.90;99.90;;;;;;5033929;28;19927;-65
2023/12/04 03:51:44;;;;;;;;;;;-1.00;99.90;;;;;;5033736;28;20331;-65
2023/12/04 03:54:13;;;;;;;;;;;-1.00;99.90;;;;;;5033457;28;19925;-64
2023/12/04 03:56:41;;;;;;;;;;;-1.20;99.90;;;;;;5033927;28;19927;-65
2023/12/04 03:59:10;;;;;;;;;;;-1.00;99.90;;;;;;5034305;28;20343;-64
2023/12/04 04:01:37;;;;;;;;;;;-1.10;99.90;;;;;;5027722;28;19967;-65
2023/12/04 04:04:05;;;;;;;;;;;-1.20;99.90;;;;;;5031372;28;19921;-66
2023/12/04 04:06:33;;;;;;;;;;;-1.40;99.90;;;;;;5033554;28;19952;-64
2023/12/04 04:09:02;;;;;;;;;;;-1.40;99.90;;;;;;5033409;28;20431;-64
2023/12/04 04:11:30;;;;;;;;;;;-1.20;99.90;;;;;;5033696;28;19924;-64
2023/12/04 04:13:58;;;;;;;;;;;-1.20;99.90;;;;;;5033302;28;19921;-65
2023/12/04 04:16:26;;;;;;;;;;;-1.20;99.90;;;;;;5033572;28;19979;-65
2023/12/04 04:18:54;;;;;;;;;;;-1.30;99.90;;;;;;5033548;28;19928;-66
2023/12/04 04:21:22;;;;;;;;;;;-1.10;99.90;;;;;;5033264;28;19921;-65
2023/12/04 04:23:49;;;;;;;;;;;-0.90;99.90;;;;;;5030061;28;19925;-64
2023/12/04 04:26:19;;;;;;;;;;;-1.00;99.90;;;;;;5032611;28;20384;-65
2023/12/04 04:28:46;;;;;;;;;;;-0.80;99.90;;;;;;5034129;28;19990;-66
2023/12/04 04:31:14;;;;;;;;;;;-1.00;99.90;;;;;;5033507;28;19922;-65
2023/12/04 04:33:42;;;;;;;;;;;-0.90;99.90;;;;;;5033011;28;19944;-65
2023/12/04 04:36:10;;;;;;;;;;;-1.10;99.90;;;;;;5032596;28;19921;-68
2023/12/04 04:38:39;;;;;;;;;;;-1.20;99.90;;;;;;5033318;28;19971;-65
2023/12/04 04:41:07;;;;;;;;;;;-1.20;99.90;;;;;;5033032;28;19921;-66
2023/12/04 04:43:36;;;;;;;;;;;-1.40;99.90;;;;;;5033274;28;20502;-67
2023/12/04 04:46:04;;;;;;;;;;;-1.40;99.90;;;;;;5032975;28;19928;-66
2023/12/04 04:48:32;;;;;;;;;;;-1.60;99.90;;;;;;5028357;28;19925;-66
2023/12/04 04:51:00;;;;;;;;;;;-1.50;99.90;;;;;;5028886;28;19921;-66
2023/12/04 04:53:28;;;;;;;;;;;-1.40;99.90;;;;;;5032836;28;20433;-67
2023/12/04 04:55:55;;;;;;;;;;;-1.50;99.90;;;;;;5032807;28;19924;-66
2023/12/04 04:58:23;;;;;;;;;;;-1.50;99.90;;;;;;5029967;28;19921;-66
2023/12/04 05:00:52;;;;;;;;;;;-1.50;99.90;;;;;;5032745;28;19921;-66
2023/12/04 05:03:20;;;;;;;;;;;-1.40;99.90;;;;;;5032384;28;19925;-66
2023/12/04 05:05:50;;;;;;;;;;;-1.30;99.90;;;;;;5031902;28;19921;-65
2023/12/04 05:08:18;;;;;;;;;;;-1.50;99.90;;;;;;5026625;28;19927;-65
2023/12/04 05:10:46;;;;;;;;;;;-1.40;99.90;;;;;;5032597;28;19920;-64
2023/12/04 05:13:13;;;;;;;;;;;-1.40;99.90;;;;;;5032916;28;19925;-64
2023/12/04 05:15:41;;;;;;;;;;;-1.20;99.90;;;;;;5032469;28;19927;-65
2023/12/04 05:18:09;;;;;;;;;;;-1.20;99.90;;;;;;5032434;28;19971;-66
2023/12/04 05:20:37;;;;;;;;;;;-1.20;99.90;;;;;;5032123;28;19970;-67
2023/12/04 05:23:05;;;;;;;;;;;-1.10;99.90;;;;;;5037048;28;19925;-65
2023/12/04 05:25:33;;;;;;;;;;;-1.00;99.90;;;;;;5032200;28;19925;-65
2023/12/04 05:28:11;;;;;;;;;;;-1.10;99.90;;;;;;5032142;28;20455;-65
2023/12/04 05:30:39;;;;;;;;;;;-1.10;99.90;;;;;;5031924;28;19951;-65
2023/12/04 05:33:07;;;;;;;;;;;-1.20;99.90;;;;;;5030632;28;19987;-65
2023/12/04 05:35:37;;;;;;;;;;;-1.00;99.90;;;;;;5028542;28;19921;-65
2023/12/04 05:38:05;;;;;;;;;;;-0.90;99.90;;;;;;5031745;28;19928;-66
2023/12/04 05:40:32;;;;;;;;;;;-1.00;99.90;;;;;;5031895;28;20380;-66
2023/12/04 05:43:00;;;;;;;;;;;-0.80;99.90;;;;;;5032143;28;19921;-65
2023/12/04 05:45:28;;;;;;;;;;;-0.70;99.90;;;;;;5031987;28;19921;-65
2023/12/04 05:47:56;;;;;;;;;;;-0.90;99.90;;;;;;5031255;28;20288;-65
2023/12/04 05:50:23;;;;;;;;;;;-1.20;99.90;;;;;;5031503;28;19929;-65
2023/12/04 05:52:53;;;;;;;;;;;-1.40;99.90;;;;;;5031877;28;19921;-64
2023/12/04 05:55:21;;;;;;;;;;;-1.20;99.90;;;;;;5031606;28;19921;-65
2023/12/04 05:57:48;;;;;;;;;;;-1.30;99.90;;;;;;5031908;28;20023;-64
2023/12/04 06:00:16;;;;;;;;;;;-1.00;99.90;;;;;;5031568;28;20019;-65
2023/12/04 06:02:45;;;;;;;;;;;-1.10;99.90;;;;;;5013179;28;19929;-65
2023/12/04 06:05:12;;;;;;;;;;;-1.20;99.90;;;;;;5031407;28;19947;-65
2023/12/04 06:07:41;;;;;;;;;;;-1.30;99.90;;;;;;5031670;28;20463;-65
2023/12/04 06:10:10;;;;;;;;;;;-1.20;99.90;;;;;;5031058;28;19978;-64
2023/12/04 06:12:38;;;;;;;;;;;-1.20;99.90;;;;;;5028089;28;20308;-68
2023/12/04 06:15:06;;;;;;;;;;;-1.40;99.90;;;;;;5022146;28;19927;-71
2023/12/04 06:17:34;;;;;;;;;;;-1.60;99.90;;;;;;5024400;28;19925;-66
2023/12/04 06:20:02;;;;;;;;;;;-1.80;99.90;;;;;;5017636;28;20360;-67
2023/12/04 06:22:30;;;;;;;;;;;-1.90;99.90;;;;;;5017192;28;19921;-65
2023/12/04 06:24:58;;;;;;;;;;;-2.10;99.90;;;;;;5017716;28;20399;-64
2023/12/04 06:27:27;;;;;;;;;;;-2.20;99.90;;;;;;5014507;28;20011;-67
2023/12/04 06:29:55;;;;;;;;;;;-2.20;99.90;;;;;;5017325;28;19928;-69
2023/12/04 06:32:23;;;;;;;;;;;-2.30;99.90;;;;;;5016450;28;20391;-67
2023/12/04 06:34:51;;;;;;;;;;;-2.30;99.90;;;;;;5015107;28;20404;-68
2023/12/04 06:37:19;;;;;;;;;;;-2.40;99.90;;;;;;5012745;28;20396;-65
2023/12/04 06:39:49;;;;;;;;;;;-2.30;99.90;;;;;;5016112;28;19971;-69
2023/12/04 06:42:17;;;;;;;;;;;-2.30;99.90;;;;;;5017750;28;20339;-64
2023/12/04 06:44:46;;;;;;;;;;;-2.30;99.90;;;;;;5014408;28;19937;-69
2023/12/04 06:47:17;;;;;;;;;;;-2.30;99.90;;;;;;5014931;28;19924;-67
2023/12/04 06:49:44;;;;;;;;;;;-2.30;99.90;;;;;;5016835;28;20231;-68
2023/12/04 06:52:12;;;;;;;;;;;-2.30;99.90;;;;;;5017314;28;19936;-65
2023/12/04 06:54:40;;;;;;;;;;;-2.30;99.90;;;;;;5017286;28;19936;-67
2023/12/04 06:57:08;;;;;;;;;;;-2.30;99.90;;;;;;5015559;28;19929;-65
2023/12/04 06:59:35;;;;;;;;;;;-2.30;99.90;;;;;;5017089;28;19983;-66
2023/12/04 07:02:05;;;;;;;;;;;-2.20;99.90;;;;;;5016641;28;19928;-64
2023/12/04 07:04:33;;;;;;;;;;;-2.20;99.90;;;;;;5013663;28;20303;-66
2023/12/04 07:07:04;;;;;;;;;;;-2.20;99.90;;;;;;5015197;28;19972;-68
2023/12/04 07:09:32;;;;;;;;;;;-2.20;99.90;;;;;;5016188;28;19929;-66
2023/12/04 07:12:02;;;;;;;;;;;-2.30;99.90;;;;;;5017253;28;19925;-66
2023/12/04 07:14:30;;;;;;;;;;;-2.30;99.90;;;;;;5021290;28;19929;-66
2023/12/04 07:16:57;;;;;;;;;;;-2.20;99.90;;;;;;5023422;28;19921;-67
2023/12/04 07:19:27;;;;;;;;;;;-2.20;99.90;;;;;;5022998;28;19925;-67
2023/12/04 07:21:55;;;;;;;;;;;-2.10;99.90;;;;;;5027128;28;19921;-66
2023/12/04 07:24:23;;;;;;;;;;;-2.20;99.90;;;;;;5029009;28;19925;-67
2023/12/04 07:26:50;;;;;;;;;;;-2.10;99.90;;;;;;5023383;28;19924;-66
2023/12/04 07:29:18;;;;;;;;;;;-2.10;99.90;;;;;;5031106;28;19921;-67
2023/12/04 07:31:46;;;;;;;;;;;-2.10;99.90;;;;;;5034018;28;19925;-67
2023/12/04 07:34:14;;;;;;;;;;;-2.00;99.90;;;;;;5026365;28;20028;-68
2023/12/04 07:36:44;;;;;;;;;;;-2.00;99.90;;;;;;5034157;28;19921;-66
2023/12/04 07:39:12;;;;;;;;;;;-2.00;99.90;;;;;;5034570;28;19967;-66
2023/12/04 07:41:39;;;;;;;;;;;-1.90;99.90;;;;;;5026382;28;19951;-66
2023/12/04 07:44:08;;;;;;;;;;;-1.90;99.90;;;;;;5034358;28;19921;-66
2023/12/04 07:46:35;;;;;;;;;;;-1.90;99.90;;;;;;5033661;28;19925;-66
2023/12/04 07:49:03;;;;;;;;;;;-1.90;99.90;;;;;;5034387;28;19921;-67
2023/12/04 07:51:32;;;;;;;;;;;-1.90;99.90;;;;;;5033971;28;20095;-67
2023/12/04 07:54:01;;;;;;;;;;;-1.90;99.90;;;;;;5034297;28;19994;-66
2023/12/04 07:56:31;;;;;;;;;;;-1.90;99.90;;;;;;5033679;28;19921;-69
2023/12/04 07:58:59;;;;;;;;;;;-1.80;99.90;;;;;;5034554;28;20299;-66
2023/12/04 08:01:26;;;;;;;;;;;-1.80;99.90;;;;;;5033727;28;19925;-66
2023/12/04 08:03:54;;;;;;;;;;;-1.80;99.90;;;;;;5033884;28;20023;-66
2023/12/04 08:06:23;;;;;;;;;;;-1.70;99.90;;;;;;5033399;28;19992;-66
2023/12/04 08:08:52;;;;;;;;;;;-1.80;99.90;;;;;;5033199;28;19932;-66
2023/12/04 08:11:21;;;;;;;;;;;-1.80;99.90;;;;;;5033569;28;19928;-69
2023/12/04 08:13:49;;;;;;;;;;;-1.70;99.90;;;;;;5033891;28;19925;-67
2023/12/04 08:16:17;;;;;;;;;;;-1.60;99.90;;;;;;5033230;28;20384;-66
2023/12/04 08:18:45;;;;;;;;;;;-1.70;99.90;;;;;;5025285;28;20275;-66
2023/12/04 08:21:12;;;;;;;;;;;-1.60;99.90;;;;;;5033526;28;19925;-67
2023/12/04 08:23:40;;;;;;;;;;;-1.50;99.90;;;;;;5033560;28;19921;-69
2023/12/04 08:26:08;;;;;;;;;;;-1.40;99.90;;;;;;5033320;28;19944;-66
2023/12/04 08:28:41;;;;;;;;;;;-1.30;99.90;;;;;;5033542;28;19948;-66
2023/12/04 08:31:09;;;;;;;;;;;-1.30;99.90;;;;;;5033436;28;19932;-68
2023/12/04 08:33:37;;;;;;;;;;;-1.30;99.90;;;;;;5024344;28;19930;-66
2023/12/04 08:36:06;;;;;;;;;;;-1.30;99.90;;;;;;5029867;28;19925;-68
2023/12/04 08:38:34;;;;;;;;;;;-1.30;99.90;;;;;;5033258;28;19921;-67
2023/12/04 08:41:01;;;;;;;;;;;-1.30;99.90;;;;;;5033308;28;19921;-68
2023/12/04 08:43:29;;;;;;;;;;;-1.30;99.90;;;;;;5033021;28;19921;-66
2023/12/04 08:46:00;;;;;;;;;;;-1.30;99.90;;;;;;5032846;28;19921;-66
2023/12/04 08:48:28;;;;;;;;;;;-1.20;99.90;;;;;;5032482;28;20368;-69
2023/12/04 08:50:56;;;;;;;;;;;-1.20;99.90;;;;;;5033199;28;19928;-67
2023/12/04 08:53:24;;;;;;;;;;;-1.20;99.90;;;;;;5032999;28;19947;-66
2023/12/04 08:55:52;;;;;;;;;;;-1.20;99.90;;;;;;5032654;28;19921;-68
2023/12/04 08:58:20;;;;;;;;;;;-1.20;99.90;;;;;;5033057;28;19921;-69
2023/12/04 09:00:48;;;;;;;;;;;-1.10;99.90;;;;;;5025112;28;19925;-66
2023/12/04 09:03:19;;;;;;;;;;;-1.00;99.90;;;;;;5025601;28;19925;-65
2023/12/04 09:05:56;;;;;;;;;;;-0.90;99.90;;;;;;5025586;28;19924;-66
2023/12/04 09:08:26;;;;;;;;;;;-0.90;99.90;;;;;;5032468;28;19932;-66
2023/12/04 09:11:04;;;;;;;;;;;-0.90;99.90;;;;;;5032996;28;19944;-66
2023/12/04 09:13:35;;;;;;;;;;;-0.90;99.90;;;;;;5032644;28;19921;-69
2023/12/04 09:16:03;;;;;;;;;;;-0.90;99.90;;;;;;5032399;28;19928;-66
2023/12/04 09:18:32;;;;;;;;;;;-0.90;99.90;;;;;;5032527;28;19925;-66
2023/12/04 09:21:00;;;;;;;;;;;-0.90;99.90;;;;;;5031452;28;19975;-66
2023/12/04 09:23:28;;;;;;;;;;;-0.90;99.90;;;;;;5032445;28;19928;-67
2023/12/04 09:25:55;;;;;;;;;;;-0.90;99.90;;;;;;5036829;28;19921;-65
2023/12/04 09:28:23;;;;;;;;;;;-0.90;99.90;;;;;;5036020;28;19928;-66
2023/12/04 09:30:51;;;;;;;;;;;-0.90;99.90;;;;;;5024491;28;19921;-66
2023/12/04 09:33:19;;;;;;;;;;;-0.90;99.90;;;;;;5032191;28;19928;-67
2023/12/04 09:35:48;;;;;;;;;;;-0.90;99.90;;;;;;5031685;28;20335;-66
2023/12/04 09:38:16;;;;;;;;;;;-0.90;99.90;;;;;;5032363;28;19921;-63
2023/12/04 09:40:44;;;;;;;;;;;-0.90;99.90;;;;;;5031263;28;20403;-66
2023/12/04 09:43:12;;;;;;;;;;;-0.90;99.90;;;;;;5032362;28;19921;-67
2023/12/04 09:45:40;;;;;;;;;;;-0.90;99.90;;;;;;5031035;28;19963;-67
2023/12/04 09:48:09;;;;;;;;;;;-0.90;99.90;;;;;;5032344;28;19927;-66
2023/12/04 09:50:38;;;;;;;;;;;-0.90;99.90;;;;;;5026592;28;20012;-66
2023/12/04 09:53:10;;;;;;;;;;;-0.90;99.90;;;;;;5031885;28;19921;-66
2023/12/04 09:55:38;;;;;;;;;;;-0.90;99.90;;;;;;5031249;28;19921;-66
2023/12/04 09:58:06;;;;;;;;;;;-0.90;99.90;;;;;;5031802;28;19925;-66
2023/12/04 10:00:35;;;;;;;;;;;-0.90;99.90;;;;;;5031364;28;19925;-66
2023/12/04 10:03:04;;;;;;;;;;;-0.90;99.90;;;;;;5031777;28;19921;-67
2023/12/04 10:05:31;;;;;;;;;;;-0.90;99.90;;;;;;5031089;28;20023;-69
2023/12/04 10:07:59;;;;;;;;;;;-0.80;99.90;;;;;;5031744;28;20020;-65
2023/12/04 10:10:28;;;;;;;;;;;-0.80;99.90;;;;;;5031942;28;19929;-66
2023/12/04 10:12:56;;;;;;;;;;;-0.70;99.90;;;;;;5031362;28;19921;-69
2023/12/04 10:15:24;;;;;;;;;;;-0.70;99.90;;;;;;5031793;28;19921;-69
2023/12/04 10:17:54;;;;;;;;;;;-0.70;99.90;;;;;;5031390;28;19928;-66
2023/12/04 10:20:23;;;;;;;;;;;-0.70;99.90;;;;;;5031690;28;19921;-66
2023/12/04 10:22:56;;;;;;;;;;;-0.70;99.90;;;;;;5031124;28;19921;-67
2023/12/04 10:25:25;;;;;;;;;;;-0.70;99.90;;;;;;5031430;28;19929;-66
2023/12/04 10:27:54;;;;;;;;;;;-0.60;99.90;;;;;;5049341;22;19944;-71
2023/12/04 10:30:27;;;;;;;;;;;-0.60;99.90;;;;;;5030049;28;20383;-69
2023/12/04 10:32:56;;;;;;;12.48;7.30;;;-0.70;99.90;;;;;;5008517;28;20207;-69
2023/12/04 10:35:24;;;;;;;10.65;6.97;;;-0.60;99.90;;;;;;5015116;28;20209;-70
2023/12/04 10:37:55;;;;;;;10.52;7.28;;;-0.50;99.90;;;;;;5010515;28;20221;-65
2023/12/04 10:40:27;;;;;;;10.57;7.10;;;-0.50;99.90;;;;;;5011202;28;20755;-69
2023/12/04 10:43:12;;;;;;;8.90;5.90;;;-0.40;99.90;;;;;;5011101;28;20231;-69
2023/12/04 10:45:41;;;;;;;9.90;6.72;;;-0.40;99.90;;;;;;5010759;28;20216;-70
2023/12/04 10:48:10;;;;;;;9.23;6.63;;;-0.30;99.90;;;;;;5010830;28;20240;-69
2023/12/04 10:50:39;;;;;;;8.88;6.00;;;-0.30;99.90;;;;;;5010922;28;20660;-70
2023/12/04 10:53:09;;;;;;;10.95;7.00;;;-0.20;99.90;;;;;;5000535;28;20248;-69
2023/12/04 10:55:38;;;;;;;8.18;6.38;;;-0.20;99.90;;;;;;5010533;28;20240;-69
2023/12/04 10:58:09;;;;;;;10.07;6.68;;;-0.30;99.90;;;;;;5014420;28;20220;-69
2023/12/04 11:00:39;;;;;;;9.35;5.72;;;-0.20;99.90;;;;;;5011643;28;20517;-69
2023/12/04 11:03:09;;;;;;;12.02;8.18;;;-0.20;99.90;;;;;;4995401;28;20234;-69
2023/12/04 11:05:39;;;;;;;10.90;7.38;;;-0.20;99.90;;;;;;5012129;28;20213;-70
2023/12/04 11:08:09;;;;;;;9.15;6.90;;;-0.10;99.90;;;;;;5014507;28;20225;-69
2023/12/04 11:10:49;;;;;;;9.95;7.13;;;-0.10;99.90;;;;;;5014695;28;20205;-69
2023/12/04 11:13:24;;;;;;;8.35;6.32;;;-0.10;99.90;;;;;;5005795;28;20212;-69
2023/12/04 11:15:57;;;;;;;11.95;7.30;;;-0.10;99.90;;;;;;5012855;28;20217;-69
2023/12/04 11:18:27;;;;;;;8.68;6.60;;;-0.10;99.90;;;;;;5014749;28;20285;-69
2023/12/04 11:20:59;;;;;;;10.98;6.78;;;-0.10;99.90;;;;;;5014463;28;20601;-69
2023/12/04 11:23:28;;;;;;;9.57;7.13;;;-0.10;99.90;;;;;;5014274;28;20209;-69
2023/12/04 11:25:57;;;;;;;13.18;7.55;;;-0.10;99.90;;;;;;5014120;28;20213;-69
2023/12/04 11:28:27;;;;;;;11.02;7.30;;;-0.10;99.90;;;;;;5010233;28;20243;-70
2023/12/04 11:30:56;;;;;;;11.50;6.95;;;-0.10;99.90;;;;;;5006463;28;20218;-70
2023/12/04 11:33:24;;;;;;;8.48;6.97;;;-0.10;99.90;;;;;;4994417;28;20260;-70
2023/12/04 11:35:52;;;;;;;11.95;8.20;;;-0.10;99.90;;;;;;5012912;28;20300;-67
2023/12/04 11:38:20;;;;;;;9.73;7.40;;;-0.20;99.90;;;;;;5014413;28;20235;-67
2023/12/04 11:40:48;;;;;;;11.63;7.82;;;-0.20;99.90;;;;;;5014380;28;20750;-70
2023/12/04 11:43:25;;;;;;;10.25;7.20;;;-0.30;99.90;;;;;;5008432;28;20205;-70
2023/12/04 11:45:54;;;;;;;10.15;6.75;;;-0.20;99.90;;;;;;5008162;28;20211;-70
2023/12/04 11:48:26;;;;;;;13.23;7.57;;;-0.10;99.90;;;;;;5013829;28;20287;-70
2023/12/04 11:50:57;;;;;;;8.98;6.22;;;-0.10;99.90;;;;;;5013902;28;20590;-70
2023/12/04 11:53:25;;;;;;;9.23;6.15;;;-0.10;99.90;;;;;;5014000;28;20563;-70
2023/12/04 11:55:56;;;;;;;9.25;6.55;;;-0.10;99.90;;;;;;5013351;28;20205;-70
2023/12/04 11:58:24;;;;;;;9.60;7.05;;;-0.20;99.90;;;;;;5003979;28;20252;-70
2023/12/04 12:00:55;;;;;;;9.23;6.70;;;-0.30;99.90;;;;;;5008366;28;20564;-70
2023/12/04 12:03:23;;;;;;;9.80;6.78;;;-0.30;99.90;;;;;;4994279;28;20680;-69
2023/12/04 12:05:52;;;;;;;9.23;6.05;;;-0.30;99.90;;;;;;5011881;28;20215;-69
2023/12/04 12:08:23;;;;;;;7.28;5.90;;;-0.50;99.90;;;;;;5013089;28;20272;-69
2023/12/04 12:10:52;;;;;;;14.10;9.13;;;-0.50;99.90;;;;;;5013848;28;20205;-70
2023/12/04 12:13:21;;;;;;;10.55;6.78;;;-0.50;99.90;;;;;;5007341;28;20247;-69
2023/12/04 12:15:50;;;;;;;14.65;9.23;;;-0.50;99.90;;;;;;5013195;28;20237;-71
2023/12/04 12:18:23;;;;;;;15.48;12.57;;;-0.60;99.90;;;;;;5013490;28;20598;-69
2023/12/04 12:20:51;;;;;;;18.48;8.98;;;-0.60;99.90;;;;;;5013389;28;20288;-69
2023/12/04 12:23:19;;;;;;;10.38;8.63;;;-0.60;99.90;;;;;;5013030;28;20210;-69
2023/12/04 12:25:47;;;;;;;10.07;8.32;;;-0.50;99.90;;;;;;5011125;28;20209;-69
2023/12/04 12:28:16;;;;;;;11.88;7.43;;;-0.50;99.90;;;;;;4999816;28;20233;-69
2023/12/04 12:30:46;;;;;;;13.27;7.93;;;-0.50;99.90;;;;;;5009074;28;20210;-70
2023/12/04 12:33:14;;;;;;;11.65;8.70;;;-0.60;99.90;;;;;;5001579;28;20253;-69
2023/12/04 12:35:44;;;;;;;11.07;8.48;;;-0.50;99.90;;;;;;5009830;28;20672;-68
2023/12/04 12:38:27;;;;;;;13.55;8.02;;;-0.50;99.90;;;;;;5013041;28;20221;-66
2023/12/04 12:40:55;;;;;;;11.68;7.60;;;-0.60;99.90;;;;;;5011773;28;20340;-69
2023/12/04 12:43:23;;;;;;;11.85;8.20;;;-0.70;99.90;;;;;;5012866;28;20664;-69
2023/12/04 12:45:52;;;;;;;12.70;8.10;;;-0.60;99.90;;;;;;5012628;28;20213;-69
2023/12/04 12:48:20;;;;;;;12.48;7.60;;;-0.50;99.90;;;;;;5013323;28;20228;-69
2023/12/04 12:50:50;;;;;;;12.32;8.85;;;-0.60;99.90;;;;;;5014481;28;20213;-68
2023/12/04 12:53:19;;;;;;;9.38;7.45;;;-0.60;99.90;;;;;;5013092;28;20288;-68
2023/12/04 12:55:48;;;;;;;13.88;8.15;;;-0.60;99.90;;;;;;5008825;28;20694;-68
2023/12/04 12:58:20;;;;;;;14.10;9.38;;;-0.60;99.90;;;;;;5005852;28;20359;-69
2023/12/04 13:00:48;;;;;;;11.00;7.90;;;-0.60;99.90;;;;;;5008025;28;20206;-69
2023/12/04 13:03:17;;;;;;;12.32;8.70;;;-0.60;99.90;;;;;;4992781;28;20218;-68
2023/12/04 13:05:45;;;;;;;10.50;7.10;;;-0.70;99.90;;;;;;5009129;28;20226;-67
2023/12/04 13:08:15;;;;;;;14.05;8.95;;;-0.80;99.90;;;;;;5012456;28;20225;-68
2023/12/04 13:10:43;;;;;;;12.38;8.95;;;-0.90;99.90;;;;;;5009388;28;20267;-69
2023/12/04 13:13:11;;;;;;;32.70;21.15;;;-0.90;99.90;;;;;;5004347;28;20197;-68
2023/12/04 13:15:41;;;;;;;16.70;10.93;;;-1.00;99.90;;;;;;5012646;28;20209;-68
2023/12/04 13:18:09;;;;;;;13.43;9.48;;;-1.00;99.90;;;;;;5012013;28;20233;-68
2023/12/04 13:20:37;;;;;;;13.63;8.40;;;-1.10;99.90;;;;;;5011542;28;20216;-68
2023/12/04 13:23:05;;;;;;;13.38;8.57;;;-1.10;99.90;;;;;;5011969;28;20631;-68
2023/12/04 13:25:34;;;;;;;11.88;8.50;;;-1.10;99.90;;;;;;5006539;28;20210;-69
2023/12/04 13:28:02;;;;;;;10.95;8.52;;;-1.10;99.90;;;;;;5009641;28;20248;-69
2023/12/04 13:30:30;;;;;;;9.80;7.90;;;-1.10;99.90;;;;;;5009857;28;20213;-69
2023/12/04 13:32:59;;;;;;;18.58;10.00;;;-1.10;99.90;;;;;;4993779;28;20229;-69
2023/12/04 13:35:27;;;;;;;14.60;8.60;;;-1.10;99.90;;;;;;5011980;28;20213;-70
2023/12/04 13:37:56;;;;;;;15.02;9.85;;;-1.10;99.90;;;;;;5011794;28;20233;-70
2023/12/04 13:40:28;;;;;;;10.43;8.02;;;-1.10;99.90;;;;;;5007018;28;20207;-68
2023/12/04 13:45:42;;;;;;;12.43;7.97;;;-1.20;99.90;;;;;;5012011;28;20205;-69
2023/12/04 13:48:10;;;;;;;11.85;8.25;;;-1.20;99.90;;;;;;5011606;28;20228;-70
2023/12/04 13:50:41;;;;;;;9.43;7.88;;;-1.20;99.90;;;;;;5012046;28;20202;-70
2023/12/04 13:53:09;;;;;;;13.68;9.55;;;-1.30;99.90;;;;;;5011389;28;20202;-69
2023/12/04 13:55:51;;;;;;;11.60;8.30;;;-1.30;99.90;;;;;;5000469;28;20199;-69
2023/12/04 13:58:38;;;;;;;10.70;8.52;;;-1.30;99.90;;;;;;4997180;28;20704;-69
2023/12/04 14:01:13;;;;;;;11.15;8.88;;;-1.30;99.90;;;;;;5004466;28;20761;-69
2023/12/04 14:03:42;;;;;;;14.88;8.95;;;-1.30;99.90;;;;;;4991969;28;20237;-69
2023/12/04 14:06:11;;;;;;;12.98;8.73;;;-1.20;99.90;;;;;;5010861;28;20205;-69